< < Back
Terminal Aerodrome Forecast


Current Version              Previous Versions:   1  2  3  4  5  6  7  8  9  

Terminal Aerodrome Forecast

399
FTUS42 KTAE 231720
TAFDHN
TAF
KDHN 231720Z 2318/2418 20006KT P6SM SCT040
     FM240000 21005KT P6SM SKC=

Latest METAR

049
SAUS70 KWBC 240300 RRK
MTRDHN
METAR KDHN 240253Z AUTO 23003KT 10SM CLR 26/22 A3005 RMK AO2 SLP169
60004 T02560222 53018


USA.gov is the U.S. government's official web portal to all federal, state and local government web resources and services.